Flight Track Log - Related Links

Times and Time Zones

All times are in EDT time to prevent confusion due to time zone crossing. See the SWA440 flight status page for this flight to view local times or setup timezone preferences in your user account.

Time Position Orientation Groundspeed Altitude Reporting Facility
EDT Latitude Longitude Course Direction KTS MPH feet Rate Location/Type
Wed 07:15:24 AM 44.8625 -93.1756 118° Southeast 159 183 2,800  Level FAA TRACON SMA TRACON (SMA)
Wed 07:15:44 AM 44.8531 -93.1508 118° Southeast 184 212 3,900 2,850 Climbing FAA TRACON SMA TRACON (SMA)
Wed 07:16:04 AM 44.8450 -93.1297 118° Southeast 196 226 4,700 2,400 Climbing FAA TRACON SMA TRACON (SMA)
Wed 07:16:24 AM 44.8367 -93.1072 118° Southeast 207 238 5,500 2,850 Climbing FAA TRACON SMA TRACON (SMA)
Wed 07:16:44 AM 44.8253 -93.0772 118° Southeast 225 259 6,600 3,220 Climbing FAA TRACON SMA TRACON (SMA)
Wed 07:17:05 AM 44.8097 -93.0578 138° Southeast 241 277 7,700 3,600 Climbing FAA TRACON SMA TRACON (SMA)
Wed 07:17:24 AM 44.7906 -93.0467 158° South 247 284 9,000 4,308 Climbing FAA TRACON SMA TRACON (SMA)
Wed 07:17:44 AM 44.7650 -93.0344 161° South 249 287 10,500 3,000 Climbing FAA TRACON SMA TRACON (SMA)
Wed 07:18:04 AM 44.7428 -93.0242 162° South 265 305 11,000 1,800 Climbing FAA TRACON SMA TRACON (SMA)
Wed 07:18:24 AM 44.7189 -93.0122 160° South 290 334 11,700 2,927 Climbing FAA TRACON SMA TRACON (SMA)
Wed 07:18:45 AM 44.6867 -92.9967 161° South 315 362 13,000 3,450 Climbing FAA TRACON SMA TRACON (SMA)
Wed 07:19:04 AM 44.6606 -92.9844 162° South 322 371 14,000 2,615 Climbing FAA TRACON SMA TRACON (SMA)
Wed 07:19:24 AM 44.6336 -92.9719 162° South 330 380 14,700 3,000 Climbing FAA TRACON SMA TRACON (SMA)
Wed 07:19:44 AM 44.5981 -92.9547 161° South 348 400 16,000 3,450 Climbing FAA TRACON SMA TRACON (SMA)
Wed 07:20:04 AM 44.5697 -92.9400 160° South 353 406 17,000 2,550 Climbing FAA TRACON SMA TRACON (SMA)
Wed 07:20:24 AM 44.5400 -92.9258 161° South 362 417 17,700 2,754 Climbing FAA TRACON SMA TRACON (SMA)
Wed 07:21:05 AM 44.4733 -92.8881 158° South 377 434 19,800 3,000 Climbing FAA TRACON SMA TRACON (SMA)
Wed 07:21:24 AM 44.4456 -92.8625 147° Southeast 388 447 20,700 3,385 Climbing FAA TRACON SMA TRACON (SMA)
Wed 07:21:44 AM 44.4100 -92.8289 146° Southeast 399 459 22,000 3,300 Climbing FAA TRACON SMA TRACON (SMA)
Wed 07:22:04 AM 44.3817 -92.8022 146° Southeast 400 460 22,900 2,550 Climbing FAA TRACON SMA TRACON (SMA)
Wed 07:22:24 AM 44.3525 -92.7764 148° Southeast 404 465 23,700 2,634 Climbing FAA TRACON SMA TRACON (SMA)
Wed 07:22:45 AM 44.3161 -92.7422 146° Southeast 408 470 24,700 2,700 Climbing FAA TRACON SMA TRACON (SMA)
Wed 07:23:04 AM 44.2864 -92.7153 147° Southeast 412 474 25,500 2,462 Climbing FAA TRACON SMA TRACON (SMA)
Wed 07:23:24 AM 44.2569 -92.6867 145° Southeast 416 479 26,300 2,850 Climbing FAA TRACON SMA TRACON (SMA)
Wed 07:23:44 AM 44.2200 -92.6514 146° Southeast 419 482 27,400 3,150 Climbing FAA TRACON SMA TRACON (SMA)
Wed 07:24:04 AM 44.1906 -92.6236 146° Southeast 418 481 28,400 2,850 Climbing FAA TRACON SMA TRACON (SMA)
Wed 07:24:24 AM 44.1614 -92.5967 146° Southeast 410 472 29,300 3,000 Climbing FAA TRACON SMA TRACON (SMA)
Wed 07:24:44 AM 44.1253 -92.5633 146° Southeast 405 466 30,400 2,488 Climbing FAA TRACON SMA TRACON (SMA)
Wed 07:25:05 AM 44.0961 -92.5378 148° Southeast 402 463 31,000 900 Climbing FAA TRACON SMA TRACON (SMA)
Wed 07:25:24 AM 44.0675 -92.5106 146° Southeast 405 466 31,000  Level FAA TRACON SMA TRACON (SMA)
Wed 07:25:44 AM 44.0453 -92.4911 148° Southeast 407 468 31,000  Level FAA TRACON SMA TRACON (SMA)
Wed 07:26:39 AM 43.9553 -92.4219 151° Southeast 409 471 31,000  Level Minneapolis Center
Wed 07:27:40 AM 43.8603 -92.3342 146° Southeast 410 472 31,000  Level Minneapolis Center
Wed 07:28:40 AM 43.7608 -92.2444 147° Southeast 418 481 31,000  Level Minneapolis Center
Wed 07:29:41 AM 43.6650 -92.1575 147° Southeast 415 478 31,000  Level Minneapolis Center
Wed 07:30:42 AM 43.5692 -92.0733 148° Southeast 411 473 31,000  Level Minneapolis Center
Wed 07:31:43 AM 43.4728 -91.9922 149° Southeast 409 471 31,000  Level Minneapolis Center
Wed 07:32:44 AM 43.3789 -91.9094 147° Southeast 405 466 31,000  Level Minneapolis Center
Wed 07:33:45 AM 43.2675 -91.8103 147° Southeast 401 461 31,000  Level Minneapolis Center
Wed 07:34:46 AM 43.1750 -91.7281 147° Southeast 400 460 31,000  Level Minneapolis Center
Wed 07:35:47 AM 43.0806 -91.6456 147° Southeast 401 461 31,000  Level Minneapolis Center
Wed 07:36:48 AM 42.9850 -91.5625 148° Southeast 405 466 31,000  Level Minneapolis Center
Wed 07:37:49 AM 42.9053 -91.4461 133° Southeast 428 493 31,000 -167 Level Minneapolis Center
Wed 07:38:36 AM 42.8683 -91.3189 112° Southeast 447 514 30,700 -716 Descending Chicago Center
Wed 07:39:38 AM 42.8222 -91.1597 112° Southeast 451 519 29,700 -976 Descending Chicago Center
Wed 07:40:39 AM 42.7736 -90.9950 112° Southeast 459 528 28,700 -976 Descending Chicago Center
Wed 07:41:41 AM 42.7289 -90.8417 112° Southeast 451 519 27,700 -976 Descending Chicago Center
Wed 07:42:42 AM 42.6836 -90.6886 112° Southeast 442 509 26,700 -976 Descending Chicago Center
Wed 07:43:44 AM 42.6364 -90.5358 113° Southeast 442 509 25,700 -1,073 Descending Chicago Center
Wed 07:44:45 AM 42.5828 -90.3553 112° Southeast 434 499 24,500 -1,073 Descending Chicago Center
Wed 07:45:47 AM 42.5375 -90.2081 113° Southeast 428 493 23,500 -976 Descending Chicago Center
Wed 07:46:48 AM 42.4928 -90.0628 113° Southeast 421 484 22,500 -976 Descending Chicago Center
Wed 07:47:50 AM 42.4500 -89.9200 112° Southeast 414 476 21,500 -976 Descending Chicago Center
Wed 07:48:51 AM 42.4044 -89.7753 113° Southeast 409 471 20,500 -1,366 Descending Chicago Center
Wed 07:49:53 AM 42.3617 -89.6367 113° Southeast 402 463 18,700 -1,707 Descending Chicago Center
Wed 07:50:54 AM 42.3192 -89.4997 113° Southeast 397 457 17,000 -1,854 Descending Chicago Center
Wed 07:51:56 AM 42.2714 -89.3492 113° Southeast 378 435 14,900 -1,790 Descending Chicago Center
Wed 07:52:58 AM 42.2331 -89.2269 113° Southeast 359 413 13,300 -1,756 Descending Chicago Center
Wed 07:53:59 AM 42.1719 -89.1306 131° Southeast 344 396 11,300 -1,512 Descending Chicago Center
Wed 07:55:01 AM 42.1067 -89.0442 136° Southeast 333 383 10,200 -1,024 Descending Chicago Center
Wed 07:56:02 AM 42.0394 -88.9569 136° Southeast 315 362 9,200 -976 Descending Chicago Center
Wed 07:57:04 AM 41.9800 -88.8775 135° Southeast 306 352 8,200 -927 Descending Chicago Center
Wed 07:58:05 AM 41.9208 -88.8017 136° Southeast 297 342 7,300 -878 Descending Chicago Center
Wed 07:59:07 AM 41.8644 -88.7278 136° Southeast 287 330 6,400 -878 Descending Chicago Center
Wed 08:00:08 AM 41.8111 -88.6594 136° Southeast 270 311 5,500 -683 Descending Chicago Center
Wed 08:01:10 AM 41.7606 -88.5931 136° Southeast 260 299 5,000 -242 Descending Chicago Center
Wed 08:02:12 AM 41.7025 -88.5175 136° Southeast 248 285 5,000  Level Chicago Center
Wed 08:03:13 AM 41.6519 -88.4536 137° Southeast 249 287 5,000 -98 Level Chicago Center
Wed 08:04:15 AM 41.6083 -88.3856 131° Southeast 251 289 4,800 -488 Descending Chicago Center
Wed 08:05:16 AM 41.6142 -88.2900 85° East 259 298 4,000 -390 Descending Chicago Center
Wed 08:06:18 AM 41.6203 -88.1997 85° East 250 288 4,000  Level Chicago Center
Wed 08:07:20 AM 41.6272 -88.1100 84° East 245 282 4,000 -293 Level Chicago Center
Wed 08:08:21 AM 41.6322 -88.0294 85° East 231 266 3,400 -488 Descending Chicago Center
Wed 08:09:23 AM 41.6442 -87.9633 76° East 201 231 3,000 -341 Descending Chicago Center
Wed 08:10:24 AM 41.6642 -87.9069 65° Northeast 182 209 2,700 -244 Descending Chicago Center
Wed 08:11:26 AM 41.7031 -87.8550 45° Northeast 170 196 2,500 -250 Descending Chicago Center
Wed 08:12:00 AM 41.7167 -87.8333 50° Northeast 134 154 2,300 -539 Descending Chicago TRACON
Wed 08:12:55 AM 41.7333 -87.8000 56° Northeast 118 136 1,700 -645 Descending Chicago TRACON
Wed 08:14:01 AM 41.7667 -87.7667 37° Northeast 118 136 1,000 -636 Descending Chicago TRACON
Wed 08:16:00 AM 41.7833 -87.7500 56° Northeast  Level FlightAware Approximate

Login

Don't have an account? Register now (free) for customized features, flight alerts, and more!